Latest Weather Observations for Pallamana

IDS60801

Issued at 4:51 pm CDT Thursday 21 February 2019 (issued every 10 minutes, with the page automatically refreshed every 10 minutes)

About weather observations | Map of weather stations | Latest weather observations for SA | Other Formats
Station Details ID: 024584 Name: PALLAMANA AERODROME Lat: -35.06 Lon: 139.23 Height: 45.0 m
Data from the previous 72 hours. | See also: Recent months at Pallamana
Date/Time
CDT
Temp
°C
App
Temp
°C
Dew
Point
°C
Rel
Hum
%
Delta-T
°C
Wind Press
QNH
hPa
Press
MSL
hPa
Rain since
9am
mm
Dir  Spd
km/h
Gust
km/h
Spd
kts
Gust
kts
21/04:30pm 23.5 18.6 8.5 38 8.0 SSE 24 33 13 18 1020.0 1019.8 0.0
21/04:00pm 23.2 18.4 8.8 39 7.7 S 24 33 13 18 1020.2 1020.0 0.0
21/03:30pm 23.7 19.2 8.5 38 8.1 S 22 35 12 19 1020.4 1020.2 0.0
21/03:00pm 23.4 19.4 8.3 38 8.0 S 19 32 10 17 1020.6 1020.4 0.0
21/02:30pm 24.6 20.5 7.7 34 8.9 S 19 30 10 16 1020.9 1020.7 0.0
21/02:00pm 23.5 20.5 7.7 36 8.3 SW 13 22 7 12 1021.0 1020.8 0.0
21/01:30pm 23.3 19.4 8.7 39 7.8 S 19 26 10 14 1021.2 1021.0 0.0
21/01:00pm 22.7 19.6 8.8 41 7.4 SSE 15 24 8 13 1021.5 1021.3 0.0
21/12:30pm 21.7 18.2 8.9 44 6.8 SSE 17 24 9 13 1021.8 1021.6 0.0
21/12:00pm 21.2 18.2 9.1 46 6.4 SSE 15 24 8 13 1022.1 1021.9 0.0
21/11:30am 20.5 17.9 9.4 49 5.9 SSW 13 22 7 12 1022.2 1022.0 0.0
21/11:00am 20.4 17.9 9.7 50 5.7 SSE 13 20 7 11 1022.2 1022.0 0.0
21/10:30am 18.9 16.8 9.6 54 4.9 S 11 22 6 12 1022.3 1022.1 0.0
21/10:00am 18.2 15.8 10.1 59 4.3 SSE 13 20 7 11 1022.3 1022.1 0.0
21/09:30am 17.8 14.8 10.7 63 3.8 SSE 17 22 9 12 1022.2 1022.0 0.0
21/09:00am 17.3 14.8 11.2 67 3.3 SE 15 20 8 11 1022.1 1021.9 0.0
21/08:30am 16.9 14.0 11.1 68 3.1 SSE 17 20 9 11 1021.8 1021.6 0.0
21/08:00am 16.8 14.4 11.4 70 2.9 SE 15 20 8 11 1021.3 1021.1 0.0
21/07:30am 16.7 13.9 11.3 70 2.9 SSE 17 24 9 13 1020.9 1020.7 0.0
21/07:00am 16.7 13.9 11.5 71 2.8 SSE 17 24 9 13 1020.5 1020.3 0.0
21/06:30am 17.0 15.2 12.1 73 2.7 SSE 13 22 7 12 1020.2 1020.0 0.0
21/06:00am 16.9 17.8 13.0 78 2.2 CALM 0 0 0 0 1019.8 1019.6 0.0
21/05:30am 16.8 17.0 13.0 78 2.1 SW 4 9 2 5 1019.6 1019.4 0.0
21/05:00am 16.8 16.7 13.2 79 2.0 S 6 9 3 5 1019.5 1019.3 0.0
21/04:30am 16.8 16.7 13.2 79 2.0 S 6 7 3 4 1019.3 1019.1 0.0
21/04:00am 16.6 16.4 13.6 82 1.7 S 7 11 4 6 1019.3 1019.1 0.0
21/03:30am 16.5 16.1 14.0 85 1.4 S 9 11 5 6 1019.4 1019.2 0.0
21/03:00am 16.2 16.2 14.3 88 1.1 SSW 7 9 4 5 1019.5 1019.3 0.0
21/02:30am 16.0 15.6 14.2 89 1.0 SW 9 11 5 6 1019.6 1019.4 0.0
21/02:00am 17.1 16.3 13.0 77 2.3 S 9 13 5 7 1019.7 1019.5 0.0
21/01:30am 16.0 15.1 12.7 81 1.8 SW 9 11 5 6 1020.0 1019.8 0.0
21/01:00am 15.9 14.6 12.6 81 1.8 SW 11 13 6 7 1019.9 1019.7 0.0
21/12:30am 17.0 15.4 12.7 76 2.4 SSW 13 19 7 10 1019.7 1019.5 0.0
21/12:00am 17.5 15.9 12.8 74 2.6 SSW 13 17 7 9 1019.7 1019.5 0.0
 
Date/Time
CDT
Temp
°C
App
Temp
°C
Dew
Point
°C
Rel
Hum
%
Delta-T
°C
Wind Press
QNH
hPa
Press
MSL
hPa
Rain since
9am
mm
Dir  Spd
km/h
Gust
km/h
Spd
kts
Gust
kts
20/11:30pm 16.9 15.3 12.8 77 2.3 SSW 13 15 7 8 1019.8 1019.6 0.0
20/11:00pm 17.7 15.7 12.7 72 2.8 SSW 15 19 8 10 1020.0 1019.8 0.0
20/10:30pm 17.3 15.6 12.4 73 2.7 S 13 17 7 9 1020.2 1020.0 0.0
20/10:00pm 17.8 15.5 13.0 73 2.7 SSW 17 20 9 11 1020.0 1019.8 0.0
20/09:30pm 17.2 14.8 12.5 74 2.6 SSW 17 22 9 12 1019.7 1019.5 0.0
20/09:00pm 17.9 14.9 12.7 71 2.9 SSW 20 24 11 13 1019.5 1019.3 0.0
20/08:30pm 18.6 15.3 12.7 68 3.3 S 22 30 12 16 1019.2 1019.0 0.0
20/08:00pm 18.5 14.2 12.0 66 3.6 S 26 39 14 21 1018.8 1018.6 0.0
20/07:30pm 19.4 14.3 12.0 62 4.1 S 30 41 16 22 1018.4 1018.2 0.0
20/07:00pm 20.2 14.8 12.1 59 4.5 SSW 32 43 17 23 1018.2 1018.0 0.0
20/06:30pm 21.3 15.6 11.8 54 5.3 SSW 33 46 18 25 1017.8 1017.6 0.0
20/06:00pm 21.9 16.5 12.1 53 5.5 S 32 46 17 25 1017.5 1017.3 0.0
20/05:30pm 22.5 16.8 11.8 50 6.0 S 33 43 18 23 1017.2 1017.0 0.0
20/05:00pm 22.7 17.1 11.4 49 6.3 SSW 32 41 17 22 1017.1 1016.9 0.0
20/04:30pm 22.7 17.0 11.0 47 6.5 S 32 43 17 23 1016.9 1016.7 0.0
20/04:22pm 23.4 18.5 11.2 46 6.8 S 28 46 15 25 1017.0 1016.8 0.0
20/04:00pm 23.3 18.1 11.6 47 6.6 S 30 43 16 23 1017.1 1016.9 0.0
20/03:30pm 24.1 18.4 11.3 44 7.2 S 32 43 17 23 1017.1 1016.9 0.0
20/03:23pm 24.0 19.0 11.1 44 7.2 S 28 43 15 23 1017.0 1016.8 0.0
20/03:00pm 24.0 19.2 9.0 38 8.1 S 24 44 13 24 1017.3 1017.1 0.0
20/02:30pm 23.7 19.8 8.8 38 8.0 SW 19 32 10 17 1017.5 1017.3 0.0
20/02:00pm 23.3 19.4 9.4 41 7.5 S 20 28 11 15 1017.5 1017.3 0.0
20/01:30pm 23.0 18.9 8.8 40 7.6 SSW 20 32 11 17 1017.9 1017.7 0.0
20/01:00pm 23.1 19.3 9.2 41 7.5 SSW 19 35 10 19 1018.0 1017.8 0.0
20/12:30pm 21.3 17.5 9.1 45 6.5 SSW 19 26 10 14 1018.5 1018.3 0.0
20/12:00pm 20.3 16.6 9.6 50 5.7 SW 19 28 10 15 1018.9 1018.7 0.0
20/11:30am 20.1 16.2 9.6 51 5.6 SW 20 32 11 17 1019.0 1018.8 0.0
20/11:00am 20.3 16.0 9.4 49 5.8 SW 22 32 12 17 1019.0 1018.8 0.0
20/10:30am 20.4 16.2 8.3 45 6.3 SW 20 28 11 15 1019.0 1018.8 0.0
20/10:00am 19.9 16.1 9.1 49 5.7 SW 19 28 10 15 1018.8 1018.6 0.0
20/09:30am 19.5 16.8 10.2 55 5.0 SSW 15 19 8 10 1018.7 1018.5 0.0
20/09:00am 18.7 16.2 11.0 61 4.2 SW 15 22 8 12 1018.6 1018.4 0.0
20/08:30am 17.3 15.0 10.6 64 3.6 W 13 17 7 9 1018.3 1018.1 0.0
20/08:00am 15.4 12.7 10.3 71 2.7 W 15 19 8 10 1018.1 1017.9 0.0
20/07:30am 13.8 10.5 9.5 75 2.2 W 17 19 9 10 1017.8 1017.6 0.0
20/07:00am 13.3 10.0 9.4 77 2.0 W 17 20 9 11 1017.4 1017.2 0.0
20/06:30am 13.4 10.0 9.3 76 2.1 W 17 20 9 11 1017.1 1016.9 0.0
20/06:00am 12.9 9.5 9.1 78 1.9 W 17 20 9 11 1017.0 1016.8 0.0
20/05:30am 12.8 9.4 9.2 79 1.8 W 17 19 9 10 1017.0 1016.8 0.0
20/05:00am 12.9 9.4 8.9 76 2.0 WNW 17 20 9 11 1017.1 1016.9 0.0
20/04:30am 13.0 9.9 8.8 75 2.1 WNW 15 17 8 9 1017.2 1017.0 0.0
20/04:00am 12.9 9.8 8.7 75 2.1 WNW 15 19 8 10 1017.2 1017.0 0.0
20/03:30am 13.2 9.7 8.6 73 2.3 WNW 17 20 9 11 1017.1 1016.9 0.0
20/03:00am 13.2 9.7 8.6 73 2.3 W 17 19 9 10 1017.2 1017.0 0.0
20/02:30am 13.1 9.9 8.5 73 2.3 W 15 17 8 9 1017.1 1016.9 0.0
20/02:00am 13.4 10.2 8.4 72 2.5 W 15 17 8 9 1017.0 1016.8 0.0
20/01:30am 13.8 11.0 8.4 70 2.7 W 13 17 7 9 1017.3 1017.1 0.0
20/01:00am 12.2 9.2 7.7 74 2.2 WSW 13 17 7 9 1017.4 1017.2 0.0
20/12:30am 13.3 10.0 8.0 70 2.6 WSW 15 17 8 9 1017.5 1017.3 0.0
20/12:00am 13.1 9.7 7.8 70 2.6 WSW 15 17 8 9 1017.5 1017.3 0.0
 
Date/Time
CDT
Temp
°C
App
Temp
°C
Dew
Point
°C
Rel
Hum
%
Delta-T
°C
Wind Press
QNH
hPa
Press
MSL
hPa
Rain since
9am
mm
Dir  Spd
km/h
Gust
km/h
Spd
kts
Gust
kts
19/11:30pm 13.2 9.9 7.9 70 2.6 SW 15 17 8 9 1017.5 1017.3 0.0
19/11:00pm 13.8 10.8 7.7 66 3.0 SW 13 15 7 8 1017.8 1017.6 0.0
19/10:30pm 14.1 11.1 7.6 65 3.2 SW 13 15 7 8 1017.9 1017.7 0.0
19/10:00pm 14.9 12.0 8.1 64 3.4 SW 13 15 7 8 1017.7 1017.5 0.0
19/09:30pm 15.4 12.4 7.8 60 3.8 SSW 13 17 7 9 1017.3 1017.1 0.0
19/09:00pm 16.9 14.0 8.3 57 4.4 S 13 17 7 9 1017.1 1016.9 0.0
19/08:30pm 17.5 13.9 8.3 54 4.7 S 17 22 9 12 1016.9 1016.7 0.0
19/08:00pm 18.0 13.4 8.3 53 5.0 S 22 32 12 17 1016.6 1016.4 0.0
19/07:30pm 19.1 14.0 7.8 48 5.8 SSW 24 35 13 19 1016.2 1016.0 0.0
19/07:00pm 19.8 14.3 7.7 45 6.2 S 26 33 14 18 1015.8 1015.6 0.0
19/06:30pm 20.3 14.3 7.2 42 6.7 S 28 37 15 20 1015.5 1015.3 0.0
19/06:00pm 20.6 14.2 7.1 41 6.9 S 30 41 16 22 1015.4 1015.2 0.0
19/05:30pm 21.4 15.3 6.7 38 7.5 S 28 44 15 24 1015.1 1014.9 0.0
19/05:00pm 21.8 15.2 6.2 36 7.9 S 30 43 16 23 1015.1 1014.9 0.0
19/04:30pm 21.7 14.3 6.6 37 7.7 S 35 46 19 25 1015.0 1014.8 0.0
19/04:00pm 21.7 15.0 7.4 39 7.4 SSW 32 43 17 23 1014.9 1014.7 0.0
19/03:49pm 22.6 15.7 7.4 37 7.9 S 33 46 18 25 1015.0 1014.8 0.0
19/03:46pm 23.3 15.9 6.6 34 8.6 S 35 50 19 27 1015.0 1014.8 0.0
19/03:30pm 22.8 15.8 6.9 36 8.2 SSE 33 46 18 25 1015.1 1014.9 0.0
19/03:00pm 22.7 16.9 6.2 34 8.4 SSW 26 39 14 21 1015.2 1015.0 0.0
19/02:30pm 23.3 18.2 6.0 32 8.8 SW 22 35 12 19 1015.5 1015.3 0.0
19/02:00pm 23.3 18.3 6.3 33 8.7 SSW 22 35 12 19 1015.7 1015.5 0.0
19/01:30pm 23.0 18.5 6.1 33 8.6 SSW 19 33 10 18 1015.8 1015.6 0.0
19/01:00pm 21.6 16.9 5.3 34 8.1 S 19 35 10 19 1015.9 1015.7 0.0
19/12:30pm 21.6 16.8 5.6 35 8.0 SW 20 30 11 16 1016.3 1016.1 0.0
19/12:00pm 20.9 16.8 6.2 38 7.4 S 17 30 9 16 1016.5 1016.3 0.0
19/11:30am 20.4 15.8 5.7 38 7.3 S 19 28 10 15 1016.6 1016.4 0.0
19/11:00am 19.8 14.6 5.6 39 7.0 SW 22 35 12 19 1016.7 1016.5 0.0
19/10:30am 19.6 14.9 6.1 41 6.7 SSW 20 35 11 19 1016.5 1016.3 0.0
19/10:00am 19.2 14.1 5.8 41 6.6 SW 22 33 12 18 1016.5 1016.3 0.0
19/09:30am 18.3 13.5 7.2 48 5.6 SSW 22 32 12 17 1016.4 1016.2 0.0
19/09:00am 18.2 13.2 6.5 46 5.8 SSW 22 32 12 17 1016.2 1016.0 0.0
19/08:30am 17.8 15.1 7.3 50 5.3 SSW 11 15 6 8 1016.0 1015.8 0.0
19/08:00am 17.2 13.4 7.5 53 4.9 SW 17 20 9 11 1015.7 1015.5 0.0
19/07:30am 16.8 14.1 7.2 53 4.8 SW 11 17 6 9 1015.4 1015.2 0.0
19/07:00am 16.4 13.6 7.1 54 4.6 WSW 11 15 6 8 1015.1 1014.9 0.0
19/06:30am 16.1 13.7 7.2 55 4.4 WSW 9 11 5 6 1014.8 1014.6 0.0
19/06:00am 16.0 12.9 7.4 56 4.3 WSW 13 17 7 9 1014.7 1014.5 0.0
19/05:30am 16.1 13.1 7.5 56 4.3 SW 13 15 7 8 1014.5 1014.3 0.0
19/05:00am 15.9 13.6 7.5 57 4.2 SSW 9 11 5 6 1014.5 1014.3 0.0
19/04:30am 16.2 12.7 7.1 55 4.5 S 15 22 8 12 1014.4 1014.2 0.0
19/04:00am 16.1 12.3 7.5 56 4.3 SSW 17 26 9 14 1014.4 1014.2 0.0
19/03:30am 16.3 13.2 8.7 60 3.9 SW 15 20 8 11 1014.3 1014.1 0.0
19/03:00am 15.9 13.7 9.3 65 3.4 SW 11 15 6 8 1014.4 1014.2 0.0
19/02:30am 15.6 13.5 9.9 69 3.0 WSW 11 13 6 7 1014.6 1014.4 0.0
19/02:00am 14.4 11.5 9.8 74 2.4 WSW 15 17 8 9 1014.8 1014.6 0.0
19/01:30am 14.7 11.8 9.7 72 2.6 SW 15 17 8 9 1015.0 1014.8 0.0
19/01:00am 16.0 12.2 9.9 67 3.2 SW 20 24 11 13 1015.0 1014.8 0.0
19/12:30am 14.3 11.1 8.5 68 2.9 WSW 15 17 8 9 1015.0 1014.8 0.0
19/12:00am 13.4 10.4 7.9 69 2.7 WSW 13 15 7 8 1014.9 1014.7 0.0
 
Date/Time
CDT
Temp
°C
App
Temp
°C
Dew
Point
°C
Rel
Hum
%
Delta-T
°C
Wind Press
QNH
hPa
Press
MSL
hPa
Rain since
9am
mm
Dir  Spd
km/h
Gust
km/h
Spd
kts
Gust
kts
18/11:30pm 14.1 11.5 7.9 66 3.1 WSW 11 13 6 7 1014.9 1014.7 0.0
18/11:00pm 15.0 12.1 8.0 63 3.5 SW 13 17 7 9 1014.9 1014.7 0.0
18/10:30pm 15.2 12.8 8.5 64 3.4 SW 11 13 6 7 1014.9 1014.7 0.0
18/10:00pm 15.5 12.7 8.4 62 3.6 SSW 13 15 7 8 1014.8 1014.6 0.0
18/09:30pm 16.6 13.1 8.8 60 4.0 SSW 17 26 9 14 1014.6 1014.4 0.0
18/09:00pm 17.2 13.0 9.6 61 4.0 SSW 22 30 12 16 1014.1 1013.9 0.0
18/08:30pm 17.9 12.4 9.1 56 4.6 SSW 28 37 15 20 1013.7 1013.5 0.0
18/08:00pm 18.3 12.1 10.0 58 4.4 SSW 33 44 18 24 1013.2 1013.0 0.0
18/07:30pm 18.9 12.5 8.7 51 5.3 SSW 32 41 17 22 1012.9 1012.7 0.0
18/07:00pm 19.3 13.1 9.3 52 5.3 SSW 32 46 17 25 1012.6 1012.4 0.0
18/06:30pm 19.9 13.0 8.9 49 5.8 SSW 35 48 19 26 1012.3 1012.1 0.0
18/06:00pm 20.3 13.5 9.2 49 5.9 SSW 35 46 19 25 1011.9 1011.7 0.0
18/05:30pm 21.4 15.2 9.5 46 6.4 SSW 32 46 17 25 1011.7 1011.5 0.0
18/05:00pm 22.1 14.7 8.3 41 7.3 SSW 37 52 20 28 1011.4 1011.2 0.0

Other formats

Comma delimited format used in spreadsheet applications
http://www.bom.gov.au/fwo/IDS60801/IDS60801.95818.axf

JavaScript Object Notation format (JSON) in row-major order
http://www.bom.gov.au/fwo/IDS60801/IDS60801.95818.json

Data quality

Most of these data are generated automatically and are frequently updated. Quality checks on data are not normally performed. It is possible for incorrect values to appear. Refer to information at About Latest Weather Observations and please check the disclaimer before using these data.